createdAt,value
2023-02-25T00:01:16.057Z,11.27
2023-02-25T00:03:51.220Z,13.87
2023-02-25T00:06:22.430Z,10.37
2023-02-25T00:08:58.715Z,15.03
2023-02-25T00:11:28.356Z,9.80
2023-02-25T00:14:04.206Z,11.10
2023-02-25T00:16:33.524Z,10.87
2023-02-25T00:19:10.980Z,10.83
2023-02-25T00:21:47.729Z,11.27
2023-02-25T00:24:17.286Z,10.17
2023-02-25T00:26:52.848Z,9.43
2023-02-25T00:29:22.234Z,10.40
2023-02-25T00:31:58.221Z,9.80
2023-02-25T00:34:27.182Z,10.60
2023-02-25T00:37:04.042Z,12.20
2023-02-25T00:39:43.644Z,15.37
2023-02-25T00:42:19.743Z,12.33
2023-02-25T00:44:49.647Z,12.40
2023-02-25T00:47:25.958Z,10.67
2023-02-25T00:49:54.625Z,11.17
2023-02-25T00:52:30.698Z,9.20
2023-02-25T00:55:00.261Z,10.40
2023-02-25T00:57:35.968Z,13.20
2023-02-25T01:00:10.409Z,7.50
2023-02-25T01:02:46.066Z,10.57
2023-02-25T01:05:18.292Z,11.30
2023-02-25T01:07:55.048Z,14.27
2023-02-25T01:10:23.621Z,11.97
2023-02-25T01:12:58.719Z,10.73
2023-02-25T01:15:27.546Z,12.17
2023-02-25T01:18:02.790Z,11.33
2023-02-25T01:20:31.721Z,12.43
2023-02-25T01:23:08.793Z,11.60
2023-02-25T01:25:42.731Z,8.13
2023-02-25T01:28:17.740Z,9.90
2023-02-25T01:30:47.810Z,13.67
2023-02-25T01:33:27.379Z,12.03
2023-02-25T01:35:56.174Z,14.53
2023-02-25T01:38:32.801Z,12.23
2023-02-25T01:41:09.249Z,10.93
2023-02-25T01:43:44.834Z,11.33
2023-02-25T01:46:13.421Z,11.90
2023-02-25T01:48:48.874Z,10.43
2023-02-25T01:51:17.347Z,11.07
2023-02-25T01:53:55.804Z,10.90
2023-02-25T01:56:27.691Z,13.47
2023-02-25T01:59:03.817Z,10.40
2023-02-25T02:01:35.757Z,11.27
2023-02-25T02:04:20.817Z,10.97
2023-02-25T02:06:52.039Z,11.00
2023-02-25T02:09:36.838Z,9.10
2023-02-25T02:12:07.844Z,10.57
2023-02-25T02:14:47.256Z,9.60
2023-02-25T02:17:22.799Z,10.37
2023-02-25T02:20:19.073Z,8.47
2023-02-25T02:23:02.989Z,7.77
2023-02-25T02:26:13.803Z,7.97
2023-02-25T02:29:07.933Z,7.43
2023-02-25T02:31:58.027Z,14.07
2023-02-25T02:34:37.941Z,6.00
2023-02-25T02:37:25.189Z,7.73
2023-02-25T02:40:20.066Z,7.43
2023-02-25T02:43:14.873Z,7.70
2023-02-25T02:45:49.321Z,8.80
2023-02-25T02:48:31.108Z,12.97
2023-02-25T02:51:04.119Z,9.90
2023-02-25T02:53:46.907Z,9.83
2023-02-25T02:56:18.914Z,8.43
2023-02-25T02:59:00.150Z,9.57
2023-02-25T03:01:32.545Z,10.03
2023-02-25T03:04:15.375Z,7.17
2023-02-25T03:06:46.267Z,6.83
2023-02-25T03:09:26.999Z,12.17
2023-02-25T03:11:55.661Z,6.50
2023-02-25T03:14:31.152Z,6.27
2023-02-25T03:17:05.805Z,5.93
2023-02-25T03:19:46.786Z,9.80
2023-02-25T03:22:18.031Z,5.60
2023-02-25T03:25:00.119Z,12.27
2023-02-25T03:27:34.578Z,7.73
2023-02-25T03:30:15.193Z,8.33
2023-02-25T03:32:54.899Z,10.63
2023-02-25T03:35:27.892Z,9.00
2023-02-25T03:38:12.971Z,9.07
2023-02-25T03:40:43.707Z,11.70
2023-02-25T03:43:25.197Z,8.30
2023-02-25T03:45:54.763Z,5.43
2023-02-25T03:48:31.181Z,7.53
2023-02-25T03:51:04.145Z,9.07
2023-02-25T03:53:39.956Z,7.00
2023-02-25T03:56:11.582Z,6.50
2023-02-25T03:58:48.972Z,6.27
2023-02-25T04:01:21.923Z,8.03
2023-02-25T04:04:04.249Z,9.27
2023-02-25T04:06:41.503Z,10.27
2023-02-25T04:09:17.155Z,8.37
2023-02-25T04:11:45.991Z,9.13
2023-02-25T04:14:27.389Z,7.17
2023-02-25T04:16:56.214Z,7.83
2023-02-25T04:19:31.225Z,12.90
2023-02-25T04:22:02.266Z,4.80
2023-02-25T04:24:36.906Z,9.00
2023-02-25T04:27:09.109Z,8.13
2023-02-25T04:29:44.205Z,10.73
2023-02-25T04:32:15.160Z,9.50
2023-02-25T04:34:50.164Z,9.80
2023-02-25T04:37:20.460Z,8.57
2023-02-25T04:39:58.236Z,6.43
2023-02-25T04:42:27.357Z,9.97
2023-02-25T04:45:03.276Z,6.10
2023-02-25T04:47:31.967Z,8.77
2023-02-25T04:50:07.213Z,7.63
2023-02-25T04:52:38.210Z,7.60
2023-02-25T04:55:16.227Z,9.87
2023-02-25T04:57:45.326Z,12.10
2023-02-25T05:00:26.216Z,10.07
2023-02-25T05:02:55.044Z,7.07
2023-02-25T05:05:36.946Z,9.97
2023-02-25T05:08:07.499Z,8.83
2023-02-25T05:10:42.959Z,7.50
2023-02-25T05:13:11.553Z,7.37
2023-02-25T05:15:48.323Z,10.27
2023-02-25T05:18:17.270Z,11.07
2023-02-25T05:20:54.933Z,7.73
2023-02-25T05:23:25.385Z,9.20
2023-02-25T05:26:01.258Z,12.00
2023-02-25T05:28:30.102Z,10.70
2023-02-25T05:31:05.052Z,9.50
2023-02-25T05:33:33.912Z,8.63
2023-02-25T05:36:11.949Z,10.77
2023-02-25T05:38:42.882Z,13.57
2023-02-25T05:41:19.259Z,13.30
2023-02-25T05:43:47.917Z,8.93
2023-02-25T05:46:23.380Z,9.47
2023-02-25T05:48:52.326Z,9.63
2023-02-25T05:51:30.240Z,12.43
2023-02-25T05:54:00.877Z,12.03
2023-02-25T05:56:37.264Z,7.30
2023-02-25T05:59:06.409Z,10.57
2023-02-25T06:01:41.151Z,10.43
2023-02-25T06:04:28.961Z,11.17
2023-02-25T06:07:04.280Z,10.13
2023-02-25T06:09:36.509Z,11.03
2023-02-25T06:12:12.253Z,13.27
2023-02-25T06:14:41.122Z,11.20
2023-02-25T06:17:16.315Z,9.73
2023-02-25T06:19:44.926Z,13.13
2023-02-25T06:22:21.318Z,8.87
2023-02-25T06:24:51.520Z,9.03
2023-02-25T06:27:27.283Z,7.73
2023-02-25T06:29:58.194Z,10.07
2023-02-25T06:32:34.599Z,14.23
2023-02-25T06:35:03.509Z,10.43
2023-02-25T06:37:39.147Z,6.93
2023-02-25T06:40:12.941Z,12.00
2023-02-25T06:42:48.008Z,5.67
2023-02-25T06:45:17.421Z,9.50
2023-02-25T06:47:53.315Z,6.60
2023-02-25T06:50:29.185Z,10.30
2023-02-25T06:52:59.885Z,7.20
2023-02-25T06:55:37.331Z,8.60
2023-02-25T06:58:06.144Z,7.67
2023-02-25T07:00:41.297Z,7.37
2023-02-25T07:03:12.160Z,6.23
2023-02-25T07:05:54.312Z,8.27
2023-02-25T07:08:22.855Z,5.57
2023-02-25T07:10:59.081Z,7.80
2023-02-25T07:13:27.461Z,7.67
2023-02-25T07:16:03.378Z,10.37
2023-02-25T07:18:31.998Z,8.73
2023-02-25T07:21:07.351Z,9.70
2023-02-25T07:23:36.806Z,8.40
2023-02-25T07:26:15.370Z,10.43
2023-02-25T07:28:47.657Z,8.63
2023-02-25T07:31:24.847Z,9.57
2023-02-25T07:33:56.285Z,6.73
2023-02-25T07:36:34.090Z,7.97
2023-02-25T07:39:04.524Z,8.50
2023-02-25T07:41:41.423Z,8.93
2023-02-25T07:44:10.936Z,10.77
2023-02-25T07:46:46.116Z,9.20
2023-02-25T07:49:14.567Z,7.83
2023-02-25T07:51:49.614Z,8.67
2023-02-25T07:54:21.249Z,7.73
2023-02-25T07:56:59.092Z,13.13
2023-02-25T07:59:28.961Z,10.83
2023-02-25T08:02:04.133Z,10.57
2023-02-25T08:04:39.525Z,15.37
2023-02-25T08:07:23.501Z,8.77
2023-02-25T08:09:52.312Z,10.47
2023-02-25T08:12:29.434Z,8.77
2023-02-25T08:15:02.305Z,9.70
2023-02-25T08:17:39.180Z,7.90
2023-02-25T08:20:10.470Z,4.63
2023-02-25T08:22:46.174Z,11.27
2023-02-25T08:25:15.098Z,12.23
2023-02-25T08:27:52.188Z,10.00
2023-02-25T08:30:22.531Z,9.30
2023-02-25T08:32:57.484Z,10.27
2023-02-25T08:35:26.649Z,11.77
2023-02-25T08:38:02.399Z,9.23
2023-02-25T08:40:32.120Z,7.50
2023-02-25T08:43:09.500Z,12.77
2023-02-25T08:45:40.141Z,10.37
2023-02-25T08:48:16.396Z,7.87
2023-02-25T08:50:45.067Z,10.97
2023-02-25T08:53:20.423Z,7.53
2023-02-25T08:55:49.446Z,10.83
2023-02-25T08:58:26.411Z,4.70
2023-02-25T09:00:55.467Z,8.20
2023-02-25T09:03:31.474Z,11.40
2023-02-25T09:06:06.781Z,9.27
2023-02-25T09:08:42.195Z,6.87
2023-02-25T09:11:10.738Z,10.53
2023-02-25T09:13:47.394Z,12.20
2023-02-25T09:16:17.992Z,11.20
2023-02-25T09:18:53.466Z,13.83
2023-02-25T09:21:23.078Z,7.90
2023-02-25T09:23:59.954Z,10.23
2023-02-25T09:26:28.851Z,13.67
2023-02-25T09:29:09.448Z,8.00
2023-02-25T09:31:40.182Z,13.63
2023-02-25T09:34:20.458Z,14.07
2023-02-25T09:36:49.242Z,7.83
2023-02-25T09:39:26.470Z,12.13
2023-02-25T09:42:00.873Z,13.17
2023-02-25T09:44:39.502Z,7.10
2023-02-25T09:47:17.130Z,10.97
2023-02-25T09:49:56.631Z,7.43
2023-02-25T09:52:30.133Z,11.73
2023-02-25T09:55:11.500Z,8.47
2023-02-25T09:57:50.458Z,9.80
2023-02-25T10:00:23.940Z,10.07
2023-02-25T10:03:09.328Z,10.17
2023-02-25T10:06:05.228Z,9.17
2023-02-25T10:08:48.183Z,9.17
2023-02-25T10:11:20.953Z,8.97
2023-02-25T10:14:03.469Z,10.63
2023-02-25T10:16:44.720Z,12.47
2023-02-25T10:19:35.536Z,12.57
2023-02-25T10:22:19.180Z,7.37
2023-02-25T10:24:57.228Z,9.57
2023-02-25T10:27:32.699Z,8.43
2023-02-25T10:30:12.850Z,13.30
2023-02-25T10:32:46.387Z,9.20
2023-02-25T10:35:25.287Z,7.90
2023-02-25T10:37:54.593Z,14.83
2023-02-25T10:40:32.875Z,9.77
2023-02-25T10:43:04.820Z,10.80
2023-02-25T10:45:42.495Z,13.47
2023-02-25T10:48:20.595Z,9.20
2023-02-25T10:51:12.565Z,7.53
2023-02-25T10:53:41.889Z,11.43
2023-02-25T10:56:18.312Z,9.93
2023-02-25T10:59:00.536Z,11.60
2023-02-25T11:01:45.291Z,13.33
2023-02-25T11:04:19.502Z,10.50
2023-02-25T11:07:03.759Z,11.13
2023-02-25T11:09:49.841Z,10.37
2023-02-25T11:12:27.341Z,14.23
2023-02-25T11:14:56.110Z,11.13
2023-02-25T11:17:34.254Z,10.83
2023-02-25T11:20:07.281Z,8.10
2023-02-25T11:22:50.577Z,8.00
2023-02-25T11:25:22.146Z,6.23
2023-02-25T11:28:05.557Z,9.23
2023-02-25T11:30:37.625Z,10.20
2023-02-25T11:33:22.570Z,12.13
2023-02-25T11:35:57.764Z,8.77
2023-02-25T11:38:35.632Z,9.23
2023-02-25T11:41:04.816Z,6.40
2023-02-25T11:43:46.311Z,7.10
2023-02-25T11:46:19.699Z,13.50
2023-02-25T11:48:57.571Z,9.17
2023-02-25T11:51:31.255Z,8.40
2023-02-25T11:54:30.352Z,7.70
2023-02-25T11:57:05.722Z,13.17
2023-02-25T11:59:45.595Z,9.97
2023-02-25T12:02:34.665Z,7.10
2023-02-25T12:05:32.646Z,8.97
2023-02-25T12:08:24.183Z,6.13
2023-02-25T12:11:38.629Z,4.57
2023-02-25T12:14:39.727Z,2.43
2023-02-25T12:17:37.334Z,2.23
2023-02-25T12:20:39.640Z,2.97
2023-02-25T12:24:01.315Z,2.77
2023-02-25T12:26:44.182Z,1.83
2023-02-25T12:29:38.689Z,5.20
2023-02-25T12:32:43.180Z,2.10
2023-02-25T12:35:43.586Z,2.03
2023-02-25T12:38:55.180Z,2.07
2023-02-25T12:41:45.355Z,3.10
2023-02-25T12:44:53.959Z,3.37
2023-02-25T12:47:37.901Z,3.47
2023-02-25T12:50:26.595Z,5.30
2023-02-25T12:53:33.617Z,6.63
2023-02-25T12:56:40.645Z,3.27
2023-02-25T12:59:36.643Z,2.33
2023-02-25T13:02:22.606Z,5.00
2023-02-25T13:05:29.330Z,6.13
2023-02-25T13:08:54.362Z,7.40
2023-02-25T13:11:54.668Z,3.97
2023-02-25T13:14:51.337Z,8.93
2023-02-25T13:17:43.829Z,4.07
2023-02-25T13:20:57.688Z,5.83
2023-02-25T13:24:01.496Z,6.00
2023-02-25T13:26:49.706Z,4.93
2023-02-25T13:29:42.949Z,5.33
2023-02-25T13:32:35.797Z,3.33
2023-02-25T13:35:34.506Z,6.83
2023-02-25T13:38:27.699Z,3.30
2023-02-25T13:41:30.227Z,4.37
2023-02-25T13:44:27.447Z,3.23
2023-02-25T13:47:28.324Z,2.80
2023-02-25T13:50:40.707Z,6.53
2023-02-25T13:53:19.386Z,2.57
2023-02-25T13:56:14.666Z,4.03
2023-02-25T13:58:57.615Z,3.10
2023-02-25T14:02:04.728Z,3.50
2023-02-25T14:05:12.713Z,4.07
2023-02-25T14:08:24.387Z,3.10
2023-02-25T14:11:05.542Z,4.13
2023-02-25T14:14:14.616Z,5.63
2023-02-25T14:17:02.508Z,5.40
2023-02-25T14:19:42.024Z,5.57
2023-02-25T14:22:36.041Z,8.27
2023-02-25T14:25:24.734Z,4.13
2023-02-25T14:28:13.545Z,4.23
2023-02-25T14:30:53.591Z,4.27
2023-02-25T14:33:53.397Z,4.30
2023-02-25T14:36:44.941Z,6.23
2023-02-25T14:39:39.448Z,2.37
2023-02-25T14:42:24.488Z,5.20
2023-02-25T14:45:06.487Z,4.77
2023-02-25T14:47:42.398Z,3.70
2023-02-25T14:50:24.478Z,5.33
2023-02-25T14:53:26.766Z,3.93
2023-02-25T14:56:52.478Z,4.77
2023-02-25T14:59:42.495Z,5.47
2023-02-25T15:02:44.760Z,10.40
2023-02-25T15:06:05.767Z,4.70
2023-02-25T15:09:16.736Z,6.83
2023-02-25T15:12:04.759Z,3.37
2023-02-25T15:15:01.745Z,5.70
2023-02-25T15:17:56.810Z,6.00
2023-02-25T15:20:40.522Z,5.20
2023-02-25T15:23:12.162Z,5.63
2023-02-25T15:25:57.650Z,3.93
2023-02-25T15:28:40.455Z,7.27
2023-02-25T15:31:36.575Z,5.87
2023-02-25T15:34:35.587Z,5.50
2023-02-25T15:37:38.797Z,6.07
2023-02-25T15:40:41.305Z,3.83
2023-02-25T15:43:50.803Z,4.77
2023-02-25T15:46:43.219Z,4.63
2023-02-25T15:49:29.761Z,4.63
2023-02-25T15:52:02.061Z,5.70
2023-02-25T15:54:56.805Z,4.17
2023-02-25T15:57:42.298Z,2.97
2023-02-25T16:00:51.106Z,4.57
2023-02-25T16:03:42.165Z,6.83
2023-02-25T16:06:34.820Z,4.40
2023-02-25T16:09:09.637Z,7.03
2023-02-25T16:11:46.535Z,5.37
2023-02-25T16:14:20.695Z,5.77
2023-02-25T16:17:00.987Z,4.03
2023-02-25T16:19:35.952Z,7.20
2023-02-25T16:22:16.570Z,3.57
2023-02-25T16:24:50.622Z,6.57
2023-02-25T16:27:39.819Z,4.60
2023-02-25T16:30:15.641Z,4.87
2023-02-25T16:32:59.845Z,6.27
2023-02-25T16:35:37.315Z,5.63
2023-02-25T16:38:23.241Z,3.53
2023-02-25T16:40:52.841Z,4.13
2023-02-25T16:43:34.837Z,5.37
2023-02-25T16:46:06.184Z,6.20
2023-02-25T16:48:44.852Z,4.27
2023-02-25T16:51:24.655Z,8.67
2023-02-25T16:54:07.868Z,6.70
2023-02-25T16:56:44.559Z,6.47
2023-02-25T16:59:19.928Z,10.07
2023-02-25T17:02:01.847Z,4.83
2023-02-25T17:04:33.346Z,5.93
2023-02-25T17:07:34.809Z,6.20
2023-02-25T17:10:15.159Z,7.80
2023-02-25T17:12:52.877Z,8.33
2023-02-25T17:15:26.259Z,8.30
2023-02-25T17:18:07.916Z,8.70
2023-02-25T17:20:38.289Z,4.47
2023-02-25T17:23:17.918Z,8.97
2023-02-25T17:25:50.209Z,10.63
2023-02-25T17:28:30.627Z,7.80
2023-02-25T17:31:09.882Z,11.43
2023-02-25T17:33:55.875Z,6.67
2023-02-25T17:36:27.668Z,7.03
2023-02-25T17:39:06.707Z,5.47
2023-02-25T17:41:35.813Z,6.23
2023-02-25T17:44:10.872Z,4.90
2023-02-25T17:46:44.317Z,7.70
2023-02-25T17:49:28.650Z,12.33
2023-02-25T17:52:00.051Z,6.97
2023-02-25T17:54:40.625Z,5.03
2023-02-25T17:57:15.752Z,7.30
2023-02-25T17:59:55.912Z,8.80
2023-02-25T18:02:38.573Z,5.40
2023-02-25T18:05:30.867Z,10.10
2023-02-25T18:08:19.370Z,3.63
2023-02-25T18:11:02.908Z,5.97
2023-02-25T18:13:36.805Z,6.03
2023-02-25T18:16:47.911Z,7.53
2023-02-25T18:19:38.286Z,7.60
2023-02-25T18:22:15.659Z,7.27
2023-02-25T18:24:54.741Z,6.17
2023-02-25T18:27:36.899Z,7.73
2023-02-25T18:30:20.668Z,6.53
2023-02-25T18:32:56.928Z,5.43
2023-02-25T18:35:26.485Z,6.33
2023-02-25T18:38:03.926Z,8.03
2023-02-25T18:40:35.995Z,6.43
2023-02-25T18:43:14.031Z,4.03
2023-02-25T18:45:44.006Z,6.07
2023-02-25T18:48:19.668Z,5.33
2023-02-25T18:50:48.493Z,7.30
2023-02-25T18:53:29.688Z,7.23
2023-02-25T18:55:59.495Z,6.40
2023-02-25T18:58:35.697Z,5.40
2023-02-25T19:01:04.709Z,6.23
2023-02-25T19:03:44.973Z,7.83
2023-02-25T19:06:20.697Z,5.03
2023-02-25T19:09:03.708Z,9.13
2023-02-25T19:11:37.175Z,5.40
2023-02-25T19:14:15.949Z,6.27
2023-02-25T19:16:47.189Z,6.97
2023-02-25T19:19:21.725Z,6.43
2023-02-25T19:21:50.873Z,3.67
2023-02-25T19:24:26.763Z,5.90
2023-02-25T19:26:55.681Z,4.70
2023-02-25T19:29:32.713Z,6.30
2023-02-25T19:32:01.978Z,5.37
2023-02-25T19:34:37.846Z,6.47
2023-02-25T19:37:12.755Z,7.50
2023-02-25T19:39:41.878Z,6.37
2023-02-25T19:42:18.731Z,11.23
2023-02-25T19:44:48.935Z,5.47
2023-02-25T19:47:25.767Z,5.23
2023-02-25T19:49:54.291Z,4.90
2023-02-25T19:52:29.970Z,6.43
2023-02-25T19:55:00.503Z,6.97
2023-02-25T19:57:36.730Z,7.40
2023-02-25T20:00:11.223Z,6.97
2023-02-25T20:02:46.667Z,6.63
2023-02-25T20:05:16.130Z,6.57
2023-02-25T20:07:57.994Z,7.43
2023-02-25T20:10:33.056Z,9.40
2023-02-25T20:13:12.402Z,7.47
2023-02-25T20:15:43.395Z,6.27
2023-02-25T20:18:18.712Z,7.87
2023-02-25T20:20:47.443Z,8.30
2023-02-25T20:23:23.048Z,7.47
2023-02-25T20:25:51.649Z,11.17
2023-02-25T20:28:30.014Z,11.50
2023-02-25T20:31:07.565Z,8.63
2023-02-25T20:33:43.747Z,10.03
2023-02-25T20:36:23.389Z,14.20
2023-02-25T20:39:13.794Z,16.27
2023-02-25T20:41:42.634Z,25.80
2023-02-25T20:44:17.811Z,32.07
2023-02-25T20:46:48.818Z,19.60
2023-02-25T20:49:26.838Z,16.47
2023-02-25T20:51:56.725Z,18.17
2023-02-25T20:54:32.021Z,10.97
2023-02-25T20:57:03.543Z,6.43
2023-02-25T20:59:38.819Z,10.70
2023-02-25T21:02:09.744Z,9.20
2023-02-25T21:04:44.696Z,7.33
2023-02-25T21:07:32.816Z,12.33
2023-02-25T21:10:08.022Z,8.60
2023-02-25T21:12:37.123Z,8.03
2023-02-25T21:15:15.023Z,8.30
2023-02-25T21:17:45.200Z,7.97
2023-02-25T21:20:23.035Z,11.20
2023-02-25T21:22:53.211Z,11.57
2023-02-25T21:25:28.804Z,6.43
2023-02-25T21:27:57.640Z,14.87
2023-02-25T21:30:33.128Z,14.70
2023-02-25T21:33:04.122Z,7.93
2023-02-25T21:35:39.052Z,8.73
2023-02-25T21:38:07.914Z,11.53
2023-02-25T21:40:42.822Z,12.90
2023-02-25T21:43:14.619Z,8.03
2023-02-25T21:46:00.089Z,10.60
2023-02-25T21:48:31.858Z,7.27
2023-02-25T21:51:08.102Z,8.30
2023-02-25T21:53:38.038Z,5.73
2023-02-25T21:56:17.861Z,8.13
2023-02-25T21:58:47.439Z,6.90
2023-02-25T22:01:25.108Z,8.17
2023-02-25T22:03:57.925Z,9.07
2023-02-25T22:06:33.838Z,11.27
2023-02-25T22:09:08.975Z,11.13
2023-02-25T22:11:45.834Z,8.10
2023-02-25T22:14:14.895Z,7.00
2023-02-25T22:16:51.182Z,10.37
2023-02-25T22:19:28.083Z,9.70
2023-02-25T22:21:57.217Z,8.77
2023-02-25T22:24:31.972Z,10.20
2023-02-25T22:27:00.929Z,7.90
2023-02-25T22:29:35.884Z,14.33
2023-02-25T22:32:04.733Z,7.47
2023-02-25T22:34:42.114Z,6.33
2023-02-25T22:37:10.761Z,10.33
2023-02-25T22:39:45.887Z,9.97
2023-02-25T22:42:14.463Z,7.27
2023-02-25T22:44:49.801Z,7.30
2023-02-25T22:47:18.806Z,9.90
2023-02-25T22:49:56.518Z,10.07
2023-02-25T22:52:25.078Z,7.73
2023-02-25T22:55:00.168Z,4.67
2023-02-25T22:57:29.248Z,8.07
2023-02-25T23:00:04.912Z,8.20
2023-02-25T23:02:33.933Z,7.47
2023-02-25T23:05:09.851Z,7.20
2023-02-25T23:07:45.701Z,8.23
2023-02-25T23:10:28.141Z,8.30
2023-02-25T23:12:59.278Z,10.13
2023-02-25T23:15:35.882Z,11.50
2023-02-25T23:18:05.230Z,16.17
2023-02-25T23:20:45.223Z,13.53
2023-02-25T23:23:17.578Z,10.47
2023-02-25T23:25:58.930Z,9.03
2023-02-25T23:28:28.182Z,11.47
2023-02-25T23:31:03.022Z,9.50
2023-02-25T23:33:32.668Z,8.43
2023-02-25T23:36:13.947Z,8.90
2023-02-25T23:38:42.608Z,8.57
2023-02-25T23:41:18.143Z,7.80
2023-02-25T23:43:47.508Z,6.73
2023-02-25T23:46:23.098Z,11.27
2023-02-25T23:48:55.284Z,11.27
2023-02-25T23:51:33.974Z,8.23
2023-02-25T23:54:06.150Z,9.00
2023-02-25T23:56:42.212Z,12.33
2023-02-25T23:59:11.298Z,10.07
